Norwegian Epic — C6XP7 — position and weather

sailwx.info

Track history (hours):
 
Tides and Currents Weather Stations Pressure Air Temp Water Temp Dewpoint Dewpoint Depression Visibility Wind Speed Wind Dir Waves Ship Positions

Norwegian Epic

Last reported at 2015-Sep-03 06:33 UTC. Time now 2015-Sep-03 06:55 UTC.
Position N 43°33' E 010°18'.

Length 329 m; draft 9.1 m.

Type: Passenger vessel. MMSI: 311018500.

Date/timePositionNaut miles runAvg speedWind from/ knotsBaromVisibWave heightAir tempDewpointWater temp
2015-Sep-03 06:33N 43°33' E 010°18'145 4.8
2015-Sep-02 00:14N 41°32' E 012°06'1115.7
2015-Sep-01 23:33N 41°23' E 012°13'1615.5
2015-Sep-01 22:33N 41°10' E 012°24'1515.1
2015-Sep-01 21:33N 40°57' E 012°35'1817.6
2015-Sep-01 20:33N 40°45' E 012°52'1717.3
2015-Sep-01 19:33N 40°43' E 013°15'1817.7
2015-Sep-01 18:33N 40°40' E 013°38'1717.4
2015-Sep-01 17:33N 40°37' E 014°00'1616.3
2015-Sep-01 16:33N 40°48' E 014°16'17 1.2
2015-Sep-01 02:30N 40°38' E 013°59'1212.9
2015-Sep-01 01:33N 40°39' E 013°43'1615.5
2015-Sep-01 00:31N 40°40' E 013°21'1615.5
2015-Aug-31 23:30N 40°42' E 013°01'1515.5
2015-Aug-31 22:33N 40°44' E 012°42'1515.3
2015-Aug-31 21:33N 40°48' E 012°22'1615.5
2015-Aug-31 20:33N 40°51' E 012°02'1515.3
2015-Aug-31 19:33N 40°55' E 011°42'1615.8
2015-Aug-31 18:33N 40°59' E 011°22'1616.3
2015-Aug-31 17:33N 41°03' E 011°01'3215.9
2015-Aug-31 15:33N 41°11' E 010°21'1815.1
2015-Aug-31 14:22N 41°16' E 009°57'2714.5
2015-Aug-31 12:29N 41°21' E 009°22'1213.5
2015-Aug-31 11:33N 41°17' E 009°06'1614.5
2015-Aug-31 10:25N 41°17' E 008°44'1415.1
2015-Aug-31 09:31N 41°17' E 008°26'1515.4
2015-Aug-31 08:33N 41°17' E 008°06'1715.2
2015-Aug-31 07:28N 41°17' E 007°44'1617.3
2015-Aug-31 06:33N 41°17' E 007°23'1818.0
2015-Aug-31 05:33N 41°17' E 006°59'1817.7
2015-Aug-31 04:34N 41°17' E 006°36'1818.0
2015-Aug-31 03:34N 41°17' E 006°12'1817.9
2015-Aug-31 02:34N 41°16' E 005°48'1817.7
2015-Aug-31 01:31N 41°16' E 005°23'1717.1
2015-Aug-31 00:34N 41°16' E 005°01'5217.2
2015-Aug-30 21:33N 41°16' E 003°52'1717.1
2015-Aug-30 20:33N 41°16' E 003°30'1817.1
2015-Aug-30 19:31N 41°16' E 003°06'1616.3
2015-Aug-30 18:33N 41°16' E 002°45'1716.7
2015-Aug-30 17:33N 41°16' E 002°23'1111.0
2015-Aug-30 16:33N 41°21' E 002°10'1 0.4
2015-Aug-30 14:28N 41°22' E 002°11'0 0.0
2015-Aug-30 03:12N 41°22' E 002°11'0 0.2
2015-Aug-30 02:33N 41°22' E 002°11'9 9.3
2015-Aug-30 01:33N 41°12' E 002°11'1514.9
2015-Aug-30 00:34N 40°58' E 002°12'1515.1
2015-Aug-29 23:33N 40°42' E 002°13'1515.0
2015-Aug-29 22:33N 40°27' E 002°12'1515.1
2015-Aug-29 21:33N 40°12' E 002°13'1515.0
2015-Aug-29 20:33N 39°57' E 002°12'1514.7
2015-Aug-29 19:33N 39°43' E 002°13'1414.2
2015-Aug-29 18:33N 39°29' E 002°19'1312.8
2015-Aug-29 17:33N 39°28' E 002°36'5 5.2
2015-Aug-29 16:33N 39°33' E 002°38'0 0.0
2015-Aug-29 15:33N 39°33' E 002°38'0 0.0
2015-Aug-29 14:31N 39°33' E 002°38'0 0.0
2015-Aug-29 13:31N 39°33' E 002°38'0 0.0
2015-Aug-29 12:32N 39°33' E 002°38'0 0.2
2015-Aug-29 11:33N 39°33' E 002°38'10 9.7
2015-Aug-29 10:33N 39°24' E 002°32'1716.5
2015-Aug-29 09:32N 39°35' E 002°15'1818.3
2015-Aug-29 08:33N 39°50' E 002°28'1918.4
2015-Aug-29 07:33N 40°04' E 002°43'1918.6
2015-Aug-29 06:33N 40°18' E 002°60'1818.4
2015-Aug-29 05:33N 40°30' E 003°17'1918.6
2015-Aug-29 04:33N 40°43' E 003°35'3718.4
2015-Aug-29 02:33N 41°09' E 004°09'1818.2
2015-Aug-29 01:33N 41°22' E 004°27'2018.3
2015-Aug-29 00:27N 41°36' E 004°46'1718.2
2015-Aug-28 23:30N 41°48' E 005°02'1718.0
2015-Aug-28 22:34N 41°60' E 005°19'1818.3
2015-Aug-28 21:33N 42°13' E 005°36'1818.3
2015-Aug-28 20:34N 42°26' E 005°53'2018.0
2015-Aug-28 19:27N 42°40' E 006°13'1718.5
2015-Aug-28 18:32N 42°51' E 006°30'1818.8
2015-Aug-28 17:33N 43°05' E 006°46'1918.6
2015-Aug-28 16:34N 43°22' E 006°57'11 5.4
2015-Aug-28 14:33N 43°32' E 007°01'0 0.0
2015-Aug-28 13:22N 43°32' E 007°01'0 0.0
2015-Aug-28 12:28N 43°32' E 007°01'0 0.0
2015-Aug-28 11:29N 43°32' E 007°01'0 0.0
2015-Aug-28 10:30N 43°32' E 007°01'0 0.0
2015-Aug-28 09:24N 43°32' E 007°01'0 0.1
2015-Aug-28 08:31N 43°32' E 007°01'0 0.0
2015-Aug-28 07:20N 43°32' E 007°01'0 0.0
2015-Aug-28 06:09N 43°32' E 007°01'0 0.0
2015-Aug-28 05:33N 43°32' E 007°01'0 0.0
2015-Aug-28 04:33N 43°32' E 007°01'5 4.9
2015-Aug-28 03:33N 43°28' E 007°05'1312.5
2015-Aug-28 02:33N 43°28' E 007°22'1312.8
2015-Aug-28 01:33N 43°29' E 007°39'1312.5
2015-Aug-28 00:33N 43°29' E 007°57'1212.3
2015-Aug-27 23:33N 43°30' E 008°14'1312.8
2015-Aug-27 22:34N 43°30' E 008°31'1515.5
2015-Aug-27 21:34N 43°31' E 008°52'1515.0
2015-Aug-27 20:34N 43°32' E 009°13'1514.7
2015-Aug-27 19:33N 43°32' E 009°33'1515.0
2015-Aug-27 18:33N 43°32' E 009°54'1414.1
2015-Aug-27 17:33N 43°31' E 010°13'4 3.5
2015-Aug-27 16:28N 43°33' E 010°18'0 0.0
2015-Aug-27 14:20N 43°33' E 010°18'0 0.0
2015-Aug-27 13:32N 43°33' E 010°18'0 0.0
2015-Aug-27 12:33N 43°33' E 010°18'0 0.0
2015-Aug-27 11:31N 43°33' E 010°18'0 0.0
2015-Aug-27 10:31N 43°33' E 010°18'0 0.0
2015-Aug-27 09:32N 43°33' E 010°18'0 0.0
2015-Aug-27 08:33N 43°33' E 010°18'0 0.0
2015-Aug-27 07:33N 43°33' E 010°18'0 0.0
2015-Aug-27 05:14N 43°33' E 010°18'12 6.3
2015-Aug-27 03:24N 43°23' E 010°11'1315.2
2015-Aug-27 02:32N 43°11' E 010°05'4715.0
2015-Aug-26 23:22N 42°24' E 009°55'2914.4
2015-Aug-26 21:20N 42°08' E 010°29'1215.4
2015-Aug-26 20:33N 42°05' E 010°44'1515.4
2015-Aug-26 19:33N 42°01' E 011°04'1717.3
2015-Aug-26 18:33N 42°02' E 011°27'91 4.2
2015-Aug-25 21:05N 40°52' E 012°43'917.1
2015-Aug-25 20:33N 40°46' E 012°52'2016.9
2015-Aug-25 19:22N 40°41' E 013°18'1417.4
2015-Aug-25 18:33N 40°39' E 013°36'1717.3
2015-Aug-25 17:34N 40°38' E 013°59'1716.5
2015-Aug-25 16:33N 40°48' E 014°16'2 0.2
2015-Aug-25 04:25N 40°50' E 014°16'6 7.3
2015-Aug-25 03:34N 40°44' E 014°13'1211.5
2015-Aug-25 02:33N 40°38' E 014°01'1212.3
2015-Aug-25 01:34N 40°39' E 013°44'1514.6
2015-Aug-25 00:33N 40°40' E 013°25'  
Track history (hours):
 
Tides and Currents Weather Stations Pressure Air Temp Water Temp Dewpoint Dewpoint Depression Visibility Wind Speed Wind Dir Waves Ship Positions

Norwegian Epic

Last reported at 2015-Sep-03 06:33 UTC. Time now 2015-Sep-03 06:55 UTC.
Position N 43°33' E 010°18'.

Length 329 m; draft 9.1 m.

Type: Passenger vessel. MMSI: 311018500.

Date/timePositionNaut miles runAvg speedWind from/ knotsBaromVisibWave heightAir tempDewpointWater temp
2015-Sep-03 06:33N 43°33' E 010°18'145 4.8
2015-Sep-02 00:14N 41°32' E 012°06'1115.7
2015-Sep-01 23:33N 41°23' E 012°13'1615.5
2015-Sep-01 22:33N 41°10' E 012°24'1515.1
2015-Sep-01 21:33N 40°57' E 012°35'1817.6
2015-Sep-01 20:33N 40°45' E 012°52'1717.3
2015-Sep-01 19:33N 40°43' E 013°15'1817.7
2015-Sep-01 18:33N 40°40' E 013°38'1717.4
2015-Sep-01 17:33N 40°37' E 014°00'1616.3
2015-Sep-01 16:33N 40°48' E 014°16'17 1.2
2015-Sep-01 02:30N 40°38' E 013°59'1212.9
2015-Sep-01 01:33N 40°39' E 013°43'1615.5
2015-Sep-01 00:31N 40°40' E 013°21'1615.5
2015-Aug-31 23:30N 40°42' E 013°01'1515.5
2015-Aug-31 22:33N 40°44' E 012°42'1515.3
2015-Aug-31 21:33N 40°48' E 012°22'1615.5
2015-Aug-31 20:33N 40°51' E 012°02'1515.3
2015-Aug-31 19:33N 40°55' E 011°42'1615.8
2015-Aug-31 18:33N 40°59' E 011°22'1616.3
2015-Aug-31 17:33N 41°03' E 011°01'3215.9
2015-Aug-31 15:33N 41°11' E 010°21'1815.1
2015-Aug-31 14:22N 41°16' E 009°57'2714.5
2015-Aug-31 12:29N 41°21' E 009°22'1213.5
2015-Aug-31 11:33N 41°17' E 009°06'1614.5
2015-Aug-31 10:25N 41°17' E 008°44'1415.1
2015-Aug-31 09:31N 41°17' E 008°26'1515.4
2015-Aug-31 08:33N 41°17' E 008°06'1715.2
2015-Aug-31 07:28N 41°17' E 007°44'1617.3
2015-Aug-31 06:33N 41°17' E 007°23'1818.0
2015-Aug-31 05:33N 41°17' E 006°59'1817.7
2015-Aug-31 04:34N 41°17' E 006°36'1818.0
2015-Aug-31 03:34N 41°17' E 006°12'1817.9
2015-Aug-31 02:34N 41°16' E 005°48'1817.7
2015-Aug-31 01:31N 41°16' E 005°23'1717.1
2015-Aug-31 00:34N 41°16' E 005°01'5217.2
2015-Aug-30 21:33N 41°16' E 003°52'1717.1
2015-Aug-30 20:33N 41°16' E 003°30'1817.1
2015-Aug-30 19:31N 41°16' E 003°06'1616.3
2015-Aug-30 18:33N 41°16' E 002°45'1716.7
2015-Aug-30 17:33N 41°16' E 002°23'1111.0
2015-Aug-30 16:33N 41°21' E 002°10'1 0.4
2015-Aug-30 14:28N 41°22' E 002°11'0 0.0
2015-Aug-30 03:12N 41°22' E 002°11'0 0.2
2015-Aug-30 02:33N 41°22' E 002°11'9 9.3
2015-Aug-30 01:33N 41°12' E 002°11'1514.9
2015-Aug-30 00:34N 40°58' E 002°12'1515.1
2015-Aug-29 23:33N 40°42' E 002°13'1515.0
2015-Aug-29 22:33N 40°27' E 002°12'1515.1
2015-Aug-29 21:33N 40°12' E 002°13'1515.0
2015-Aug-29 20:33N 39°57' E 002°12'1514.7
2015-Aug-29 19:33N 39°43' E 002°13'1414.2
2015-Aug-29 18:33N 39°29' E 002°19'1312.8
2015-Aug-29 17:33N 39°28' E 002°36'5 5.2
2015-Aug-29 16:33N 39°33' E 002°38'0 0.0
2015-Aug-29 15:33N 39°33' E 002°38'0 0.0
2015-Aug-29 14:31N 39°33' E 002°38'0 0.0
2015-Aug-29 13:31N 39°33' E 002°38'0 0.0
2015-Aug-29 12:32N 39°33' E 002°38'0 0.2
2015-Aug-29 11:33N 39°33' E 002°38'10 9.7
2015-Aug-29 10:33N 39°24' E 002°32'1716.5
2015-Aug-29 09:32N 39°35' E 002°15'1818.3
2015-Aug-29 08:33N 39°50' E 002°28'1918.4
2015-Aug-29 07:33N 40°04' E 002°43'1918.6
2015-Aug-29 06:33N 40°18' E 002°60'1818.4
2015-Aug-29 05:33N 40°30' E 003°17'1918.6
2015-Aug-29 04:33N 40°43' E 003°35'3718.4
2015-Aug-29 02:33N 41°09' E 004°09'1818.2
2015-Aug-29 01:33N 41°22' E 004°27'2018.3
2015-Aug-29 00:27N 41°36' E 004°46'1718.2
2015-Aug-28 23:30N 41°48' E 005°02'1718.0
2015-Aug-28 22:34N 41°60' E 005°19'1818.3
2015-Aug-28 21:33N 42°13' E 005°36'1818.3
2015-Aug-28 20:34N 42°26' E 005°53'2018.0
2015-Aug-28 19:27N 42°40' E 006°13'1718.5
2015-Aug-28 18:32N 42°51' E 006°30'1818.8
2015-Aug-28 17:33N 43°05' E 006°46'1918.6
2015-Aug-28 16:34N 43°22' E 006°57'11 5.4
2015-Aug-28 14:33N 43°32' E 007°01'0 0.0
2015-Aug-28 13:22N 43°32' E 007°01'0 0.0
2015-Aug-28 12:28N 43°32' E 007°01'0 0.0
2015-Aug-28 11:29N 43°32' E 007°01'0 0.0
2015-Aug-28 10:30N 43°32' E 007°01'0 0.0
2015-Aug-28 09:24N 43°32' E 007°01'0 0.1
2015-Aug-28 08:31N 43°32' E 007°01'0 0.0
2015-Aug-28 07:20N 43°32' E 007°01'0 0.0
2015-Aug-28 06:09N 43°32' E 007°01'0 0.0
2015-Aug-28 05:33N 43°32' E 007°01'0 0.0
2015-Aug-28 04:33N 43°32' E 007°01'5 4.9
2015-Aug-28 03:33N 43°28' E 007°05'1312.5
2015-Aug-28 02:33N 43°28' E 007°22'1312.8
2015-Aug-28 01:33N 43°29' E 007°39'1312.5
2015-Aug-28 00:33N 43°29' E 007°57'1212.3
2015-Aug-27 23:33N 43°30' E 008°14'1312.8
2015-Aug-27 22:34N 43°30' E 008°31'1515.5
2015-Aug-27 21:34N 43°31' E 008°52'1515.0
2015-Aug-27 20:34N 43°32' E 009°13'1514.7
2015-Aug-27 19:33N 43°32' E 009°33'1515.0
2015-Aug-27 18:33N 43°32' E 009°54'1414.1
2015-Aug-27 17:33N 43°31' E 010°13'4 3.5
2015-Aug-27 16:28N 43°33' E 010°18'0 0.0
2015-Aug-27 14:20N 43°33' E 010°18'0 0.0
2015-Aug-27 13:32N 43°33' E 010°18'0 0.0
2015-Aug-27 12:33N 43°33' E 010°18'0 0.0
2015-Aug-27 11:31N 43°33' E 010°18'0 0.0
2015-Aug-27 10:31N 43°33' E 010°18'0 0.0
2015-Aug-27 09:32N 43°33' E 010°18'0 0.0
2015-Aug-27 08:33N 43°33' E 010°18'0 0.0
2015-Aug-27 07:33N 43°33' E 010°18'0 0.0
2015-Aug-27 05:14N 43°33' E 010°18'12 6.3
2015-Aug-27 03:24N 43°23' E 010°11'1315.2
2015-Aug-27 02:32N 43°11' E 010°05'4715.0
2015-Aug-26 23:22N 42°24' E 009°55'2914.4
2015-Aug-26 21:20N 42°08' E 010°29'1215.4
2015-Aug-26 20:33N 42°05' E 010°44'1515.4
2015-Aug-26 19:33N 42°01' E 011°04'1717.3
2015-Aug-26 18:33N 42°02' E 011°27'91 4.2
2015-Aug-25 21:05N 40°52' E 012°43'917.1
2015-Aug-25 20:33N 40°46' E 012°52'2016.9
2015-Aug-25 19:22N 40°41' E 013°18'1417.4
2015-Aug-25 18:33N 40°39' E 013°36'1717.3
2015-Aug-25 17:34N 40°38' E 013°59'1716.5
2015-Aug-25 16:33N 40°48' E 014°16'2 0.2
2015-Aug-25 04:25N 40°50' E 014°16'6 7.3
2015-Aug-25 03:34N 40°44' E 014°13'1211.5
2015-Aug-25 02:33N 40°38' E 014°01'1212.3
2015-Aug-25 01:34N 40°39' E 013°44'1514.6
2015-Aug-25 00:33N 40°40' E 013°25'  

Dump ship's entire track history